Time;durP1;ratioP1;P1;durP2;ratioP2;P2;SDS_P1;SDS_P2;PMS_P1;PMS_P2;Temp;Humidity;BMP_temperature;BMP_pressure;BME280_temperature;BME280_humidity;BME280_pressure;Samples;Min_cycle;Max_cycle;Signal;HPM_P1;HPM_P2
2022/04/27 00:01:57;;;;;;;10.80;7.03;;;7.90;99.90;;;;;;5073594;28;20456;-63
2022/04/27 00:04:23;;;;;;;11.80;6.85;;;7.90;99.90;;;;;;5071706;28;20127;-63
2022/04/27 00:06:50;;;;;;;9.68;6.80;;;7.90;99.90;;;;;;5073589;28;20377;-63
2022/04/27 00:09:17;;;;;;;13.38;6.35;;;7.90;99.90;;;;;;5073553;28;20138;-63
2022/04/27 00:11:44;;;;;;;10.98;6.05;;;7.90;99.90;;;;;;5071818;28;20111;-63
2022/04/27 00:14:11;;;;;;;9.13;6.43;;;8.00;99.90;;;;;;5073604;28;20091;-63
2022/04/27 00:16:39;;;;;;;14.05;6.70;;;8.00;99.90;;;;;;5072155;28;20056;-63
2022/04/27 00:19:06;;;;;;;11.65;6.55;;;8.00;99.90;;;;;;5071478;28;20075;-63
2022/04/27 00:21:33;;;;;;;9.30;5.97;;;8.00;99.90;;;;;;5073593;28;20488;-63
2022/04/27 00:24:00;;;;;;;9.63;6.57;;;8.00;99.90;;;;;;5072398;28;20053;-62
2022/04/27 00:26:27;;;;;;;16.95;6.97;;;8.00;99.90;;;;;;5071865;28;20543;-63
2022/04/27 00:28:54;;;;;;;9.82;5.38;;;8.10;99.90;;;;;;5073283;28;20123;-62
2022/04/27 00:31:20;;;;;;;11.23;6.10;;;8.10;99.90;;;;;;5072479;28;20119;-62
2022/04/27 00:33:49;;;;;;;11.02;5.55;;;8.10;99.90;;;;;;5073260;28;20110;-62
2022/04/27 00:36:15;;;;;;;9.52;5.93;;;8.10;99.90;;;;;;5072951;28;20091;-62
2022/04/27 00:38:42;;;;;;;10.93;5.60;;;8.10;99.90;;;;;;5072500;28;20586;-62
2022/04/27 00:41:09;;;;;;;11.95;5.60;;;8.20;99.90;;;;;;5071935;28;20080;-62
2022/04/27 00:43:39;;;;;;;10.13;4.95;;;8.30;99.90;;;;;;5071727;28;20131;-62
2022/04/27 00:46:06;;;;;;;8.95;5.72;;;8.20;99.90;;;;;;5072567;28;20119;-62
2022/04/27 00:48:35;;;;;;;10.63;5.10;;;8.30;99.90;;;;;;5071652;28;20130;-63
2022/04/27 00:51:04;;;;;;;10.23;5.47;;;8.30;99.90;;;;;;5071634;28;20056;-62
2022/04/27 00:53:31;;;;;;;8.52;5.05;;;8.40;99.90;;;;;;5071247;28;20555;-63
2022/04/27 00:55:58;;;;;;;9.48;5.28;;;8.40;99.90;;;;;;5072043;28;20097;-63
2022/04/27 00:58:27;;;;;;;8.20;4.13;;;8.40;99.90;;;;;;5072813;28;20084;-63
2022/04/27 01:00:54;;;;;;;10.30;4.78;;;8.40;99.90;;;;;;5072248;28;20144;-63
2022/04/27 01:03:20;;;;;;;8.95;4.70;;;8.40;99.90;;;;;;5071460;28;20078;-63
2022/04/27 01:05:48;;;;;;;6.70;4.20;;;8.40;99.90;;;;;;5071234;28;20083;-63
2022/04/27 01:08:18;;;;;;;10.30;4.15;;;8.40;99.90;;;;;;5071769;28;20071;-62
2022/04/27 01:10:47;;;;;;;8.93;4.40;;;8.40;99.90;;;;;;5071395;28;20076;-63
2022/04/27 01:13:14;;;;;;;8.30;4.55;;;8.40;99.90;;;;;;5071013;28;20087;-63
2022/04/27 01:15:42;;;;;;;7.90;3.72;;;8.50;99.90;;;;;;5075025;28;20495;-63
2022/04/27 01:18:09;;;;;;;8.45;4.13;;;8.50;99.90;;;;;;5074507;28;20148;-63
2022/04/27 01:20:38;;;;;;;6.20;4.10;;;8.50;99.90;;;;;;5092335;28;20215;-63
2022/04/27 01:23:06;;;;;;;7.65;3.78;;;8.60;99.90;;;;;;5074831;28;20495;-63
2022/04/27 01:25:54;;;;;;;8.27;4.53;;;8.60;99.90;;;;;;5092845;28;20064;-63
2022/04/27 01:28:23;;;;;;;7.78;4.47;;;8.60;99.90;;;;;;5073887;28;20052;-63
2022/04/27 01:30:56;;;;;;;8.20;3.95;;;8.60;99.90;;;;;;5074384;28;20076;-63
2022/04/27 01:33:23;;;;;;;10.55;3.95;;;8.60;99.90;;;;;;5075021;28;20055;-63
2022/04/27 01:35:51;;;;;;;9.40;4.18;;;8.60;99.90;;;;;;5074225;28;20052;-63
2022/04/27 01:38:18;;;;;;;8.75;3.97;;;8.60;99.90;;;;;;5074727;28;20230;-63
2022/04/27 01:40:45;;;;;;;6.78;3.55;;;8.70;99.90;;;;;;5092950;28;20139;-63
2022/04/27 01:43:14;;;;;;;8.45;4.32;;;8.70;99.90;;;;;;5092316;28;20048;-63
2022/04/27 01:45:42;;;;;;;8.38;4.13;;;8.60;99.90;;;;;;5092524;28;20154;-63
2022/04/27 01:48:10;;;;;;;8.73;3.95;;;8.70;99.90;;;;;;5092368;28;20058;-63
2022/04/27 01:50:37;;;;;;;7.65;4.47;;;8.70;99.90;;;;;;5074235;28;20044;-63
2022/04/27 01:55:50;;;;;;;7.68;3.95;;;8.70;99.90;;;;;;5092088;28;20044;-63
2022/04/27 01:58:17;;;;;;;7.05;3.50;;;8.70;99.90;;;;;;5074348;28;20044;-62
2022/04/27 02:00:46;;;;;;;6.63;3.97;;;8.70;99.90;;;;;;5073958;28;20076;-62
2022/04/27 02:03:13;;;;;;;8.10;3.78;;;8.70;99.90;;;;;;5074130;28;20410;-63
2022/04/27 02:05:40;;;;;;;7.32;3.40;;;8.70;99.90;;;;;;5074519;28;20052;-63
2022/04/27 02:08:08;;;;;;;10.82;4.50;;;8.70;99.90;;;;;;5074635;28;20399;-63
2022/04/27 02:10:35;;;;;;;10.77;4.10;;;8.70;99.90;;;;;;5074113;28;20083;-63
2022/04/27 02:13:02;;;;;;;6.65;3.70;;;8.70;99.90;;;;;;5092585;28;20048;-62
2022/04/27 02:15:29;;;;;;;5.30;3.70;;;8.70;99.90;;;;;;5095417;28;20131;-63
2022/04/27 02:17:56;;;;;;;8.27;4.18;;;8.70;99.90;;;;;;5095675;28;20479;-63
2022/04/27 02:20:23;;;;;;;7.25;3.63;;;8.70;99.90;;;;;;5096042;28;20136;-63
2022/04/27 02:22:50;;;;;;;5.75;3.33;;;8.60;99.90;;;;;;5078237;28;20067;-62
2022/04/27 02:25:19;;;;;;;11.77;3.88;;;8.60;99.90;;;;;;5095457;28;20055;-62
2022/04/27 02:27:46;;;;;;;7.38;3.50;;;8.70;99.90;;;;;;5077900;28;20460;-63
2022/04/27 02:30:13;;;;;;;3.97;3.05;;;8.60;99.90;;;;;;5077617;28;20135;-64
2022/04/27 02:32:40;;;;;;;6.20;3.28;;;8.70;99.90;;;;;;5077344;28;20156;-63
2022/04/27 02:35:08;;;;;;;5.47;3.65;;;8.60;99.90;;;;;;5077720;28;20048;-63
2022/04/27 02:37:36;;;;;;;5.88;3.10;;;8.60;99.90;;;;;;5060540;28;20097;-63
2022/04/27 02:40:05;;;;;;;8.38;3.80;;;8.60;99.90;;;;;;5077336;28;20047;-63
2022/04/27 02:42:33;;;;;;;7.95;3.05;;;8.60;99.90;;;;;;5096340;28;20075;-63
2022/04/27 02:45:00;;;;;;;7.53;3.30;;;8.60;99.90;;;;;;5076807;28;20131;-63
2022/04/27 02:47:27;;;;;;;10.68;3.42;;;8.60;99.90;;;;;;5077379;28;20080;-63
2022/04/27 02:52:37;;;;;;;6.45;3.40;;;8.60;99.90;;;;;;5094791;28;20043;-63
2022/04/27 02:55:05;;;;;;;9.48;3.38;;;8.60;99.90;;;;;;5095694;28;20457;-63
2022/04/27 02:57:33;;;;;;;5.15;3.20;;;8.60;99.90;;;;;;5077438;28;20056;-63
2022/04/27 03:00:00;;;;;;;5.78;3.65;;;8.60;99.90;;;;;;5076405;28;20134;-64
2022/04/27 03:02:27;;;;;;;7.97;3.17;;;8.70;99.90;;;;;;5077201;28;20463;-64
2022/04/27 03:04:53;;;;;;;5.68;3.42;;;8.60;99.90;;;;;;5095093;28;20117;-64
2022/04/27 03:07:20;;;;;;;9.23;3.35;;;8.60;99.90;;;;;;5076407;28;20055;-63
2022/04/27 03:09:48;;;;;;;7.45;3.30;;;8.60;99.90;;;;;;5077268;28;20502;-64
2022/04/27 03:12:14;;;;;;;5.85;3.35;;;8.50;99.90;;;;;;5077338;28;20048;-64
2022/04/27 03:14:42;;;;;;;6.15;3.95;;;8.50;99.90;;;;;;5094584;28;20131;-63
2022/04/27 03:17:09;;;;;;;8.27;3.33;;;8.50;99.90;;;;;;5076644;28;20543;-63
2022/04/27 03:19:37;;;;;;;5.43;3.30;;;8.50;99.90;;;;;;5094958;28;20075;-63
2022/04/27 03:22:04;;;;;;;6.57;3.10;;;8.40;99.90;;;;;;5076374;28;20051;-63
2022/04/27 03:24:31;;;;;;;5.75;3.47;;;8.40;99.90;;;;;;5094773;28;20176;-62
2022/04/27 03:26:58;;;;;;;6.43;3.38;;;8.30;99.90;;;;;;5093202;28;20540;-62
2022/04/27 03:29:24;;;;;;;7.07;3.38;;;8.30;99.90;;;;;;5076950;28;20048;-63
2022/04/27 03:31:53;;;;;;;9.48;3.25;;;8.30;99.90;;;;;;5094501;28;20087;-63
2022/04/27 03:34:20;;;;;;;7.40;3.60;;;8.30;99.90;;;;;;5093912;28;20156;-64
2022/04/27 03:36:46;;;;;;;7.32;3.88;;;8.30;99.90;;;;;;5094796;28;20443;-64
2022/04/27 03:39:13;;;;;;;4.68;3.05;;;8.30;99.90;;;;;;5076452;28;20090;-63
2022/04/27 03:41:40;;;;;;;4.43;2.88;;;8.20;99.90;;;;;;5093987;28;20052;-63
2022/04/27 03:44:07;;;;;;;5.63;3.72;;;8.20;99.90;;;;;;5076731;28;20133;-63
2022/04/27 03:46:33;;;;;;;7.75;3.15;;;8.30;99.90;;;;;;5076100;28;20048;-64
2022/04/27 03:49:02;;;;;;;7.13;3.08;;;8.30;99.90;;;;;;5075658;28;20050;-64
2022/04/27 03:51:28;;;;;;;6.82;3.00;;;8.20;99.90;;;;;;5094171;28;20093;-64
2022/04/27 03:53:55;;;;;;;4.20;3.10;;;8.20;99.90;;;;;;5094531;28;20444;-63
2022/04/27 03:56:22;;;;;;;5.55;2.90;;;8.30;99.90;;;;;;5075502;28;20533;-62
2022/04/27 03:58:49;;;;;;;7.65;3.13;;;8.30;99.90;;;;;;5094410;28;20162;-62
2022/04/27 04:01:16;;;;;;;5.68;3.22;;;8.20;99.90;;;;;;5093285;28;20059;-63
2022/04/27 04:03:42;;;;;;;7.38;3.50;;;8.20;99.90;;;;;;5093401;28;20044;-63
2022/04/27 04:06:11;;;;;;;6.05;3.03;;;8.20;99.90;;;;;;5075969;28;20135;-63
2022/04/27 04:08:37;;;;;;;7.32;3.53;;;8.70;99.90;;;;;;5075753;28;20582;-63
2022/04/27 04:11:04;;;;;;;7.82;3.45;;;8.20;99.90;;;;;;5074902;28;20079;-63
2022/04/27 04:13:31;;;;;;;5.45;3.97;;;8.20;99.90;;;;;;5075877;28;20099;-64
2022/04/27 04:15:58;;;;;;;7.45;3.85;;;8.20;99.90;;;;;;5093478;28;20048;-64
2022/04/27 04:18:24;;;;;;;6.50;4.43;;;8.20;99.90;;;;;;5093602;28;20087;-64
2022/04/27 04:20:51;;;;;;;6.75;3.45;;;8.20;99.90;;;;;;5093682;28;20113;-64
2022/04/27 04:23:19;;;;;;;8.82;3.90;;;8.20;99.90;;;;;;5075172;28;20090;-63
2022/04/27 04:28:30;;;;;;;9.60;3.65;;;8.20;99.90;;;;;;5093300;28;20044;-63
2022/04/27 04:30:58;;;;;;;9.40;3.70;;;8.20;99.90;;;;;;5092924;28;20491;-63
2022/04/27 04:33:25;;;;;;;7.45;4.15;;;8.20;99.90;;;;;;5075565;28;20087;-63
2022/04/27 04:35:52;;;;;;;8.05;3.97;;;8.20;99.90;;;;;;5093669;28;20478;-63
2022/04/27 04:38:20;;;;;;;8.73;4.38;;;8.30;99.90;;;;;;5092487;28;20492;-63
2022/04/27 04:40:47;;;;;;;11.13;4.72;;;8.30;99.90;;;;;;5093360;28;20079;-63
2022/04/27 04:43:14;;;;;;;6.88;3.70;;;8.20;99.90;;;;;;5093143;28;20134;-63
2022/04/27 04:45:41;;;;;;;7.95;4.18;;;8.30;99.90;;;;;;5092784;28;20463;-63
2022/04/27 04:48:09;;;;;;;7.43;4.32;;;8.30;99.90;;;;;;5075345;28;20075;-63
2022/04/27 04:50:36;;;;;;;5.57;3.33;;;8.30;99.90;;;;;;5075156;28;20131;-63
2022/04/27 04:53:04;;;;;;;5.70;3.60;;;8.30;99.90;;;;;;5074652;28;20131;-63
2022/04/27 04:55:32;;;;;;;8.13;3.40;;;8.30;99.90;;;;;;5093221;28;20101;-64
2022/04/27 04:57:59;;;;;;;5.82;3.97;;;8.40;99.90;;;;;;5074869;28;20074;-64
2022/04/27 05:00:26;;;;;;;5.45;3.63;;;8.40;99.90;;;;;;5092489;28;20445;-62
2022/04/27 05:02:53;;;;;;;8.10;3.97;;;8.30;99.90;;;;;;5075230;28;20480;-63
2022/04/27 05:05:19;;;;;;;12.10;4.38;;;8.40;99.90;;;;;;5074365;28;20080;-62
2022/04/27 05:07:46;;;;;;;7.40;3.97;;;8.40;99.90;;;;;;5093039;28;20079;-63
2022/04/27 05:10:13;;;;;;;8.02;4.35;;;8.50;99.90;;;;;;5074862;28;20048;-63
2022/04/27 05:12:41;;;;;;;6.88;3.33;;;8.40;99.90;;;;;;5092379;28;20424;-62
2022/04/27 05:15:09;;;;;;;7.00;4.28;;;8.50;99.90;;;;;;5075302;28;20048;-63
2022/04/27 05:17:36;;;;;;;7.47;3.85;;;8.50;99.90;;;;;;5075106;28;20110;-62
2022/04/27 05:20:04;;;;;;;8.88;4.05;;;8.50;99.90;;;;;;5074610;28;20109;-63
2022/04/27 05:22:35;;;;;;;10.85;3.92;;;8.60;99.90;;;;;;5092594;28;20085;-64
2022/04/27 05:25:03;;;;;;;7.63;4.35;;;8.60;99.90;;;;;;5093050;28;20094;-63
2022/04/27 05:27:30;;;;;;;7.57;4.00;;;8.70;99.90;;;;;;5074234;28;20491;-62
2022/04/27 05:32:43;;;;;;;4.90;3.38;;;8.70;99.90;;;;;;5074926;28;20144;-63
2022/04/27 05:35:10;;;;;;;6.53;4.00;;;8.80;99.90;;;;;;5074463;28;20098;-62
2022/04/27 05:37:37;;;;;;;6.20;3.75;;;8.80;99.90;;;;;;5074188;28;20127;-63
2022/04/27 05:40:05;;;;;;;5.93;3.75;;;8.90;99.90;;;;;;5093015;28;20082;-62
2022/04/27 05:42:32;;;;;;;5.18;3.70;;;8.90;99.90;;;;;;5074221;28;20475;-62
2022/04/27 05:45:00;;;;;;;6.05;3.58;;;8.90;99.90;;;;;;5075045;28;20129;-62
2022/04/27 05:47:27;;;;;;;7.95;3.92;;;8.90;99.90;;;;;;5090249;28;20070;-61
2022/04/27 05:49:54;;;;;;;5.38;3.28;;;8.90;99.90;;;;;;5069187;28;20151;-61
2022/04/27 05:52:21;;;;;;;5.10;3.05;;;9.00;99.90;;;;;;5083945;28;20455;-62
2022/04/27 05:54:48;;;;;;;4.43;3.00;;;9.00;99.90;;;;;;5079297;28;20106;-62
2022/04/27 05:57:15;;;;;;;4.55;3.10;;;9.00;99.90;;;;;;5081632;28;20043;-62
2022/04/27 05:59:43;;;;;;;7.25;3.80;;;9.10;99.90;;;;;;5081722;28;20088;-61
2022/04/27 06:02:11;;;;;;;5.25;3.40;;;9.10;99.90;;;;;;5079899;28;20148;-63
2022/04/27 06:04:38;;;;;;;6.32;3.92;;;9.10;99.90;;;;;;5078942;28;20127;-61
2022/04/27 06:07:06;;;;;;;6.30;3.67;;;9.20;99.90;;;;;;5085528;28;20525;-61
2022/04/27 06:09:33;;;;;;;6.97;3.80;;;9.20;99.90;;;;;;5069476;28;20146;-61
2022/04/27 06:12:00;;;;;;;7.63;3.80;;;9.20;99.90;;;;;;5058174;28;20244;-60
2022/04/27 06:14:27;;;;;;;8.13;3.05;;;9.30;99.90;;;;;;5082304;28;20509;-62
2022/04/27 06:16:54;;;;;;;3.75;1.90;;;9.30;99.90;;;;;;5062616;28;20088;-61
2022/04/27 06:19:22;;;;;;;6.40;2.05;;;9.30;99.90;;;;;;5074813;28;20095;-61
2022/04/27 06:21:49;;;;;;;4.22;2.17;;;9.30;99.90;;;;;;5082639;28;20514;-62
2022/04/27 06:24:16;;;;;;;6.75;2.45;;;9.40;99.90;;;;;;5062104;28;20137;-62
2022/04/27 06:26:42;;;;;;;4.38;2.47;;;9.40;99.90;;;;;;5081474;28;20052;-62
2022/04/27 06:29:10;;;;;;;7.90;3.00;;;9.50;99.90;;;;;;5081588;28;20492;-62
2022/04/27 06:31:36;;;;;;;4.55;2.78;;;9.60;99.90;;;;;;5060749;28;20053;-61
2022/04/27 06:34:03;;;;;;;6.45;2.90;;;9.60;99.90;;;;;;5076854;28;20072;-62
2022/04/27 06:36:32;;;;;;;7.03;3.05;;;9.70;99.90;;;;;;5079829;28;20106;-62
2022/04/27 06:38:58;;;;;;;4.72;2.42;;;9.70;99.90;;;;;;5078954;28;20076;-62
2022/04/27 06:41:25;;;;;;;6.10;2.50;;;9.70;99.90;;;;;;5081171;28;20500;-61
2022/04/27 06:43:52;;;;;;;5.20;2.08;;;9.80;99.90;;;;;;5080030;28;20483;-61
2022/04/27 06:46:19;;;;;;;3.17;1.90;;;9.90;99.90;;;;;;5082996;28;20044;-61
2022/04/27 06:48:46;;;;;;;6.13;2.45;;;9.90;99.90;;;;;;5076732;28;20101;-62
2022/04/27 06:51:13;;;;;;;5.68;2.47;;;9.90;99.90;;;;;;5061140;28;20052;-61
2022/04/27 06:53:41;;;;;;;3.72;2.50;;;10.00;99.90;;;;;;5079095;28;20388;-61
2022/04/27 06:56:08;;;;;;;4.88;2.72;;;10.00;99.90;;;;;;5079317;28;20076;-62
2022/04/27 06:58:35;;;;;;;4.85;2.42;;;10.10;99.90;;;;;;5078963;28;20040;-62
2022/04/27 07:01:03;;;;;;;3.83;1.80;;;10.10;99.90;;;;;;5075714;28;20052;-61
2022/04/27 07:03:31;;;;;;;3.30;2.17;;;10.20;99.90;;;;;;5061749;28;20068;-61
2022/04/27 07:05:59;;;;;;;3.38;2.20;;;10.20;99.90;;;;;;5079157;28;20068;-61
2022/04/27 07:08:26;;;;;;;5.30;2.35;;;10.20;99.90;;;;;;5063488;28;20040;-61
2022/04/27 07:10:55;;;;;;;7.32;2.45;;;10.20;99.90;;;;;;5063836;28;20155;-61
2022/04/27 07:13:23;;;;;;;4.60;2.60;;;10.30;99.90;;;;;;5080929;28;20055;-61
2022/04/27 07:15:50;;;;;;;5.40;2.30;;;10.30;99.90;;;;;;5082161;28;20056;-62
2022/04/27 07:18:16;;;;;;;5.57;2.28;;;10.30;99.90;;;;;;5076542;28;20073;-61
2022/04/27 07:20:43;;;;;;;5.80;2.00;;;10.40;99.90;;;;;;5059604;28;20132;-62
2022/04/27 07:23:10;;;;;;;3.28;1.92;;;10.40;99.90;;;;;;5065086;28;20135;-62
2022/04/27 07:25:37;;;;;;;5.07;1.90;;;10.40;99.90;;;;;;5083218;28;20060;-62
2022/04/27 07:28:05;;;;;;;3.95;1.77;;;10.50;99.90;;;;;;5080637;28;20132;-63
2022/04/27 07:30:32;;;;;;;5.32;2.60;;;10.50;99.90;;;;;;5083119;28;20131;-61
2022/04/27 07:32:59;;;;;;;5.03;2.20;;;10.60;99.90;;;;;;5074944;28;20080;-61
2022/04/27 07:35:26;;;;;;;5.25;2.67;;;10.60;99.90;;;;;;5090875;28;20047;-62
2022/04/27 07:37:53;;;;;;;5.10;2.55;;;10.60;99.90;;;;;;5081351;28;20644;-61
2022/04/27 07:40:19;;;;;;;7.05;2.63;;;10.70;99.90;;;;;;5072392;28;20101;-61
2022/04/27 07:42:48;;;;;;;7.95;2.50;;;10.70;99.90;;;;;;5092959;28;20079;-62
2022/04/27 07:45:16;;;;;;;4.82;2.50;;;10.70;99.90;;;;;;5067709;28;20105;-63
2022/04/27 07:47:44;;;;;;;4.78;2.30;;;10.70;99.90;;;;;;5084718;28;20110;-63
2022/04/27 07:50:12;;;;;;;5.28;1.95;;;10.70;99.90;;;;;;5074836;28;20084;-62
2022/04/27 07:52:39;;;;;;;4.43;2.05;;;10.70;99.90;;;;;;5093693;28;20051;-62
2022/04/27 07:55:08;;;;;;;4.82;2.08;;;10.60;99.90;;;;;;5091913;28;20138;-61
2022/04/27 07:57:35;;;;;;;4.78;1.88;;;10.60;99.90;;;;;;5091739;28;20120;-62
2022/04/27 08:00:05;;;;;;;3.88;2.10;;;10.70;99.90;;;;;;5093355;28;20544;-61
2022/04/27 08:02:33;;;;;;;4.15;2.17;;;10.70;99.90;;;;;;5073800;28;20106;-63
2022/04/27 08:05:01;;;;;;;7.25;2.58;;;10.70;99.90;;;;;;5092743;28;20857;-63
2022/04/27 08:07:36;;;;;;;5.22;2.20;;;10.80;99.90;;;;;;5074351;28;20494;-62
2022/04/27 08:10:10;;;;;;;6.07;2.25;;;10.80;99.90;;;;;;5069729;28;20084;-63
2022/04/27 08:12:38;;;;;;;7.75;2.47;;;10.80;99.90;;;;;;5092107;28;20098;-62
2022/04/27 08:15:06;;;;;;;5.82;2.75;;;10.80;99.90;;;;;;5073086;28;20055;-63
2022/04/27 08:17:35;;;;;;;9.40;2.63;;;10.70;99.90;;;;;;5074101;28;20142;-62
2022/04/27 08:22:46;;;;;;;5.95;2.13;;;10.60;99.90;;;;;;5087999;28;20503;-62
2022/04/27 08:25:13;;;;;;;9.43;2.72;;;10.60;99.90;;;;;;5073736;28;20340;-62
2022/04/27 08:27:39;;;;;;;8.27;2.83;;;10.60;99.90;;;;;;5092056;28;20166;-62
2022/04/27 08:30:07;;;;;;;7.70;2.80;;;10.60;99.90;;;;;;5091097;28;20094;-61
2022/04/27 08:32:36;;;;;;;12.80;3.10;;;10.60;99.90;;;;;;5091963;28;20044;-61
2022/04/27 08:35:02;;;;;;;6.40;2.45;;;10.60;99.90;;;;;;5092256;28;20044;-62
2022/04/27 08:37:29;;;;;;;8.63;3.10;;;10.60;99.90;;;;;;5073209;28;20123;-61
2022/04/27 08:39:56;;;;;;;5.60;2.38;;;10.80;99.90;;;;;;5073772;28;20059;-62
2022/04/27 08:42:23;;;;;;;9.75;2.78;;;10.80;99.90;;;;;;5074330;28;20167;-61
2022/04/27 08:44:49;;;;;;;7.90;2.50;;;10.90;99.90;;;;;;5089698;28;20048;-62
2022/04/27 08:47:16;;;;;;;8.05;2.88;;;11.00;99.90;;;;;;5073741;28;20145;-62
2022/04/27 08:49:44;;;;;;;7.10;2.47;;;11.10;99.90;;;;;;5073561;28;20539;-60
2022/04/27 08:52:13;;;;;;;9.38;2.80;;;11.20;99.90;;;;;;5073365;28;20400;-61
2022/04/27 08:54:41;;;;;;;7.78;2.55;;;11.20;99.90;;;;;;5087959;28;20048;-62
2022/04/27 08:57:08;;;;;;;7.78;2.70;;;11.20;99.90;;;;;;5091875;28;20060;-61
2022/04/27 08:59:35;;;;;;;9.80;2.85;;;11.20;99.90;;;;;;5090653;28;20052;-62
2022/04/27 09:02:26;;;;;;;6.82;3.30;;;11.30;99.90;;;;;;5086015;28;20083;-62
2022/04/27 09:05:14;;;;;;;7.13;2.45;;;11.40;99.90;;;;;;5071202;28;20087;-61
2022/04/27 09:07:42;;;;;;;7.07;2.97;;;11.30;99.90;;;;;;5056090;28;20102;-62
2022/04/27 09:10:11;;;;;;;9.30;2.90;;;11.30;99.90;;;;;;5082489;28;20080;-62
2022/04/27 09:12:44;;;;;;;10.10;3.13;;;11.30;99.90;;;;;;5070719;28;20415;-62
2022/04/27 09:15:12;;;;;;;7.93;3.55;;;11.30;99.90;;;;;;5062830;28;20071;-62
2022/04/27 09:23:21;;;;;;;8.52;3.05;;;11.30;99.90;;;;;;5087681;28;20040;-62
2022/04/27 09:25:50;;;;;;;9.40;3.28;;;11.20;99.90;;;;;;5089472;28;20063;-62
2022/04/27 09:28:17;;;;;;;6.20;2.78;;;11.20;99.90;;;;;;5076423;28;20442;-62
2022/04/27 09:30:47;;;;;;;10.15;3.17;;;11.10;99.90;;;;;;5085568;28;20143;-62
2022/04/27 09:33:14;;;;;;;8.43;3.10;;;11.10;99.90;;;;;;5082199;28;20075;-62
2022/04/27 09:35:42;;;;;;;9.02;3.10;;;11.00;99.90;;;;;;5059235;28;20060;-62
2022/04/27 09:38:14;;;;;;;11.50;3.13;;;10.90;99.90;;;;;;5076181;28;20080;-62
2022/04/27 09:40:45;;;;;;;11.55;3.22;;;10.90;99.90;;;;;;5056955;28;20052;-62
2022/04/27 09:43:13;;;;;;;11.15;3.58;;;10.90;99.90;;;;;;5075040;28;20123;-61
2022/04/27 09:45:41;;;;;;;11.02;3.00;;;10.80;99.90;;;;;;5078022;28;20492;-62
2022/04/27 09:48:11;;;;;;;7.35;2.67;;;10.90;99.90;;;;;;5074582;28;20048;-62
2022/04/27 09:50:50;;;;;;;14.40;3.80;;;10.90;99.90;;;;;;5075092;28;20055;-62
2022/04/27 09:53:18;;;;;;;8.57;2.90;;;11.00;99.90;;;;;;5066338;28;20391;-61
2022/04/27 09:55:47;;;;;;;7.95;2.70;;;11.10;99.90;;;;;;5076612;28;20162;-61
2022/04/27 09:58:15;;;;;;;9.35;3.20;;;11.10;99.90;;;;;;5066842;28;20067;-62
2022/04/27 10:00:43;;;;;;;10.00;2.83;;;11.10;99.90;;;;;;5065688;28;20052;-62
2022/04/27 10:03:13;;;;;;;8.40;3.33;;;11.10;99.90;;;;;;5079501;28;20047;-61
2022/04/27 10:05:41;;;;;;;10.82;3.30;;;11.20;99.90;;;;;;5082263;28;20392;-61
2022/04/27 10:08:10;;;;;;;8.35;3.22;;;11.20;99.90;;;;;;5078724;28;20064;-62
2022/04/27 10:10:39;;;;;;;17.13;3.72;;;11.30;99.90;;;;;;5058537;28;20161;-62
2022/04/27 10:13:10;;;;;;;10.38;3.33;;;11.30;99.90;;;;;;5082465;28;20036;-62
2022/04/27 10:15:38;;;;;;;9.73;2.75;;;11.30;99.90;;;;;;5074298;28;20062;-62
2022/04/27 10:18:05;;;;;;;12.90;3.63;;;11.40;99.90;;;;;;5074240;28;20068;-63
2022/04/27 10:20:33;;;;;;;11.75;3.70;;;11.40;99.90;;;;;;5074525;28;20084;-63
2022/04/27 10:23:24;;;;;;;7.53;3.00;;;11.40;99.90;;;;;;5061682;28;20119;-63
2022/04/27 10:26:15;;;;;;;9.55;3.28;;;11.40;99.90;;;;;;5093945;28;20054;-62
2022/04/27 10:28:46;;;;;;;8.48;2.83;;;11.50;99.90;;;;;;5054251;28;20052;-62
2022/04/27 10:31:13;;;;;;;12.02;2.70;;;11.50;99.90;;;;;;5058528;28;20076;-62
2022/04/27 10:33:44;;;;;;;11.40;2.72;;;11.60;99.90;;;;;;5084312;28;20082;-62
2022/04/27 10:36:22;;;;;;;11.93;3.00;;;11.60;99.90;;;;;;5075637;28;20055;-62
2022/04/27 10:39:17;;;;;;;8.68;3.20;;;11.60;99.90;;;;;;5075551;28;20127;-62
2022/04/27 10:41:53;;;;;;;11.43;3.47;;;11.60;99.90;;;;;;5094655;28;20080;-61
2022/04/27 10:44:20;;;;;;;14.82;2.95;;;11.60;99.90;;;;;;5061448;28;20139;-62
2022/04/27 10:46:47;;;;;;;14.07;3.17;;;11.70;99.90;;;;;;5079806;28;20504;-62
2022/04/27 10:49:23;;;;;;;9.93;2.90;;;11.70;99.90;;;;;;5073684;28;20056;-62
2022/04/27 10:52:00;;;;;;;10.55;3.20;;;11.80;99.90;;;;;;5073670;28;20049;-62
2022/04/27 10:54:31;;;;;;;12.48;2.80;;;11.80;99.90;;;;;;5074675;28;20056;-62
2022/04/27 10:57:39;;;;;;;6.13;2.72;;;11.80;99.90;;;;;;5091532;28;20044;-62
2022/04/27 11:00:07;;;;;;;13.07;2.33;;;11.70;99.90;;;;;;5060134;28;20049;-63
2022/04/27 11:02:35;;;;;;;9.43;2.67;;;11.70;99.90;;;;;;5057217;28;20555;-62
2022/04/27 11:05:02;;;;;;;7.80;3.50;;;11.90;99.90;;;;;;5074463;28;20464;-61
2022/04/27 11:07:36;;;;;;;9.40;2.60;;;12.00;99.90;;;;;;5075906;28;20135;-62
2022/04/27 11:10:16;;;;;;;10.55;3.35;;;12.00;99.90;;;;;;5075365;28;20135;-62
2022/04/27 11:12:48;;;;;;;11.63;2.65;;;12.10;99.90;;;;;;5082530;28;20119;-62
2022/04/27 11:15:21;;;;;;;10.80;2.92;;;12.20;99.90;;;;;;5055824;28;20080;-61
2022/04/27 11:17:55;;;;;;;8.13;2.58;;;12.20;99.90;;;;;;5083408;28;20411;-62
2022/04/27 11:20:33;;;;;;;10.77;3.03;;;12.10;99.90;;;;;;5075160;28;20063;-62
2022/04/27 11:23:00;;;;;;;6.20;2.58;;;12.30;99.80;;;;;;5074100;28;20079;-61
2022/04/27 11:25:31;;;;;;;7.68;2.50;;;12.30;99.90;;;;;;5079491;28;20051;-61
2022/04/27 11:27:58;;;;;;;;;;;12.50;99.90;;;;;;5085618;28;20553;-62
2022/04/27 11:30:26;;;;;;;8.65;2.50;;;12.60;99.60;;;;;;5056151;28;20435;-65
2022/04/27 11:32:53;;;;;;;6.95;2.90;;;12.70;99.70;;;;;;5061488;28;20126;-62
2022/04/27 11:35:23;;;;;;;12.88;3.30;;;12.70;99.60;;;;;;5075775;28;20518;-62
2022/04/27 11:37:52;;;;;;;10.00;3.47;;;12.70;99.10;;;;;;5055223;28;20048;-63
2022/04/27 11:40:25;;;;;;;10.35;3.08;;;12.80;99.10;;;;;;5077248;28;20119;-62
2022/04/27 11:42:53;;;;;;;10.88;2.78;;;12.80;99.20;;;;;;5055211;28;20508;-62
2022/04/27 11:45:21;;;;;;;11.20;3.08;;;12.80;99.00;;;;;;5060671;28;20448;-62
2022/04/27 11:48:02;;;;;;;10.18;3.10;;;13.00;98.90;;;;;;5072674;28;20163;-63
2022/04/27 11:50:31;;;;;;;6.28;2.28;;;13.00;97.80;;;;;;5074047;28;20376;-62
2022/04/27 11:53:03;;;;;;;8.38;2.05;;;13.10;97.90;;;;;;5093189;28;20083;-62
2022/04/27 11:55:30;;;;;;;9.48;2.40;;;13.00;97.80;;;;;;5092843;28;20082;-63
2022/04/27 11:57:59;;;;;;;9.70;2.80;;;13.20;97.80;;;;;;5074641;28;20443;-63
2022/04/27 12:00:28;;;;;;;10.30;2.70;;;13.10;97.60;;;;;;5075087;28;20546;-62
2022/04/27 12:03:03;;;;;;;8.80;2.40;;;13.20;97.40;;;;;;5092653;28;20052;-62
2022/04/27 12:05:30;;;;;;;7.13;2.45;;;13.30;97.20;;;;;;5086270;28;20074;-63
2022/04/27 12:07:58;;;;;;;9.45;2.40;;;13.40;96.80;;;;;;5073480;28;20052;-63
2022/04/27 12:10:24;;;;;;;5.75;2.60;;;13.50;96.50;;;;;;5075265;28;20084;-63
2022/04/27 12:12:52;;;;;;;8.90;2.75;;;13.70;96.40;;;;;;5077733;28;20551;-63
2022/04/27 12:15:26;;;;;;;8.23;2.50;;;13.70;96.00;;;;;;5086326;28;20083;-63
2022/04/27 12:17:54;;;;;;;10.57;2.30;;;13.80;95.70;;;;;;5091538;28;20048;-62
2022/04/27 12:20:26;;;;;;;6.88;2.53;;;13.90;95.70;;;;;;5092844;28;20137;-62
2022/04/27 12:22:55;;;;;;;8.45;2.70;;;13.80;95.30;;;;;;5083776;28;20079;-62
2022/04/27 12:25:23;;;;;;;10.80;2.55;;;13.90;95.30;;;;;;5089854;28;20484;-62
2022/04/27 12:27:51;;;;;;;13.30;2.53;;;13.80;95.30;;;;;;5091796;28;20121;-62
2022/04/27 12:30:22;;;;;;;5.07;2.33;;;13.90;95.10;;;;;;5091398;28;20091;-62
2022/04/27 12:32:49;;;;;;;6.28;2.20;;;14.00;94.90;;;;;;5085823;28;20131;-61
2022/04/27 12:38:11;;;;;;;6.15;2.53;;;14.20;94.80;;;;;;5090269;28;20170;-62
2022/04/27 12:40:38;;;;;;;7.65;2.67;;;14.30;94.50;;;;;;5083826;28;20052;-62
2022/04/27 12:43:07;;;;;;;10.35;2.88;;;14.40;94.80;;;;;;5091225;28;20127;-62
2022/04/27 12:45:36;;;;;;;7.95;2.20;;;14.50;94.90;;;;;;5091547;28;20071;-62
2022/04/27 12:48:04;;;;;;;10.90;2.25;;;14.60;94.80;;;;;;5087929;28;20052;-61
2022/04/27 12:50:32;;;;;;;12.57;3.00;;;14.60;94.70;;;;;;5090751;28;20040;-62
2022/04/27 12:53:10;;;;;;;8.75;3.20;;;14.50;94.60;;;;;;5083467;28;20127;-62
2022/04/27 12:55:37;;;;;;;6.65;2.72;;;14.50;92.70;;;;;;5090785;28;20128;-61
2022/04/27 12:58:05;;;;;;;7.38;2.65;;;14.40;94.20;;;;;;5091344;28;20071;-62
2022/04/27 13:00:42;;;;;;;7.40;2.72;;;14.20;94.10;;;;;;5091738;28;20123;-62
2022/04/27 13:03:10;;;;;;;11.45;2.58;;;14.20;93.70;;;;;;5091339;28;20404;-61
2022/04/27 13:05:41;;;;;;;6.88;2.22;;;14.10;94.10;;;;;;5091216;28;20410;-62
2022/04/27 13:08:08;;;;;;;7.07;2.40;;;14.00;94.50;;;;;;5086601;28;20051;-61
2022/04/27 13:13:22;;;;;;;13.55;3.03;;;14.10;94.40;;;;;;5091348;28;20054;-62
2022/04/27 13:15:51;;;;;;;9.38;2.40;;;14.00;94.20;;;;;;5091071;28;20465;-62
2022/04/27 13:18:18;;;;;;;13.70;2.78;;;13.90;94.40;;;;;;5090995;28;20574;-62
2022/04/27 13:20:48;;;;;;;12.82;3.13;;;13.80;94.40;;;;;;5085062;28;20084;-62
2022/04/27 13:23:15;;;;;;;11.15;2.75;;;13.70;94.50;;;;;;5090704;28;20396;-61